Time;durP1;ratioP1;P1;durP2;ratioP2;P2;SDS_P1;SDS_P2;PMS_P1;PMS_P2;Temp;Humidity;BMP_temperature;BMP_pressure;BME280_temperature;BME280_humidity;BME280_pressure;Samples;Min_cycle;Max_cycle;Signal;HPM_P1;HPM_P2
2024/01/05 00:01:52;;;;;;;0.80;0.80;;;;;;;8.50;100.00;99013.31;4944962;28;20054;-70
2024/01/05 00:04:18;;;;;;;0.77;0.77;;;;;;;8.56;100.00;98994.50;4936762;29;20114;-70
2024/01/05 00:06:43;;;;;;;0.70;0.70;;;;;;;8.33;100.00;98960.13;4947340;29;20039;-70
2024/01/05 00:09:09;;;;;;;0.73;0.73;;;;;;;8.60;100.00;99001.41;4946384;29;20030;-69
2024/01/05 00:11:34;;;;;;;0.75;0.75;;;;;;;8.59;100.00;98989.06;4945052;29;20027;-69
2024/01/05 00:13:59;;;;;;;0.70;0.70;;;;;;;8.59;100.00;98970.50;4948705;29;20042;-64
2024/01/05 00:16:25;;;;;;;0.70;0.70;;;;;;;8.59;100.00;98970.50;4950631;28;20482;-65
2024/01/05 00:18:51;;;;;;;0.80;0.80;;;;;;;8.62;100.00;98970.38;4941440;28;20070;-64
2024/01/05 00:21:20;;;;;;;0.80;0.80;;;;;;;8.60;100.00;98966.97;4959139;28;20019;-64
2024/01/05 00:23:47;;;;;;;0.60;0.60;;;;;;;8.16;100.00;98912.22;4950190;29;20106;-64
2024/01/05 00:26:12;;;;;;;0.68;0.68;;;;;;;8.51;100.00;98965.53;4936029;29;20079;-64
2024/01/05 00:28:38;;;;;;;0.70;0.70;;;;;;;8.55;100.00;98966.28;4913181;29;20484;-64
2024/01/05 00:31:03;;;;;;;0.70;0.70;;;;;;;8.58;100.00;98964.34;4934478;29;20027;-64
2024/01/05 00:33:28;;;;;;;0.73;0.73;;;;;;;8.61;100.00;98960.72;4954078;28;20386;-64
2024/01/05 00:35:54;;;;;;;0.70;0.70;;;;;;;8.42;100.00;98920.84;4958420;28;20351;-64
2024/01/05 00:38:20;;;;;;;0.70;0.70;;;;;;;8.61;100.00;98958.06;4955013;28;20030;-64
2024/01/05 00:40:45;;;;;;;0.80;0.80;;;;;;;8.60;100.00;98951.06;4967779;28;20027;-64
2024/01/05 00:43:10;;;;;;;0.68;0.68;;;;;;;8.60;100.00;98945.75;4936727;28;20114;-65
2024/01/05 00:45:36;;;;;;;0.70;0.70;;;;;;;8.50;100.00;98928.50;4929473;29;20654;-64
2024/01/05 00:48:01;;;;;;;0.80;0.80;;;;;;;8.62;100.00;98943.88;4933066;28;20102;-65
2024/01/05 00:50:27;;;;;;;0.80;0.80;;;;;;;8.72;100.00;98954.03;4914322;29;20059;-64
2024/01/05 00:52:52;;;;;;;0.70;0.70;;;;;;;8.75;100.00;98966.28;4945041;29;20042;-64
2024/01/05 00:55:17;;;;;;;0.63;0.63;;;;;;;8.81;100.00;98960.75;4942844;29;20047;-63
2024/01/05 00:57:43;;;;;;;0.80;0.80;;;;;;;8.81;100.00;98955.44;4950101;28;20030;-64
2024/01/05 01:00:09;;;;;;;0.85;0.85;;;;;;;8.86;100.00;98958.78;4947278;29;20102;-65
2024/01/05 01:02:37;;;;;;;0.70;0.70;;;;;;;8.47;100.00;98883.56;4949247;28;20042;-64
2024/01/05 01:05:03;;;;;;;0.80;0.80;;;;;;;8.81;100.00;98944.84;4947163;29;20110;-65
2024/01/05 01:07:29;;;;;;;0.70;0.70;;;;;;;8.82;100.00;98938.59;4961951;28;20018;-64
2024/01/05 01:09:55;;;;;;;0.70;0.70;;;;;;;8.85;100.00;98942.00;4953310;28;20032;-64
2024/01/05 01:12:20;;;;;;;0.70;0.70;;;;;;;8.87;99.84;98941.91;4946595;29;20205;-64
2024/01/05 01:14:46;;;;;;;0.77;0.77;;;;;;;8.65;99.40;98914.63;4950041;28;20039;-64
2024/01/05 01:17:11;;;;;;;0.70;0.70;;;;;;;8.83;99.76;98932.41;4947969;28;20043;-64
2024/01/05 01:19:36;;;;;;;0.60;0.60;;;;;;;8.80;99.50;98933.38;4949560;28;20027;-64
2024/01/05 01:22:02;;;;;;;0.80;0.80;;;;;;;8.82;99.99;98935.94;4965483;28;20081;-65
2024/01/05 01:24:28;;;;;;;0.70;0.70;;;;;;;8.83;99.67;98933.22;4967545;28;20478;-68
2024/01/05 01:26:53;;;;;;;0.70;0.70;;;;;;;8.81;99.87;98928.94;4958340;28;20041;-69
2024/01/05 01:29:19;;;;;;;0.80;0.80;;;;;;;8.82;99.63;98930.66;4948372;29;20079;-69
2024/01/05 01:31:44;;;;;;;0.70;0.70;;;;;;;8.81;99.93;98928.94;4950901;28;20417;-69
2024/01/05 01:34:09;;;;;;;0.70;0.70;;;;;;;8.77;99.55;98928.19;4930772;29;20039;-68
2024/01/05 01:36:35;;;;;;;0.73;0.73;;;;;;;8.77;99.73;98924.69;4948884;29;20031;-68
2024/01/05 01:39:00;;;;;;;0.70;0.70;;;;;;;8.78;100.00;98929.06;4948828;29;20542;-69
2024/01/05 01:41:25;;;;;;;0.70;0.70;;;;;;;8.54;99.82;98882.38;4953409;28;20041;-69
2024/01/05 01:43:51;;;;;;;0.70;0.70;;;;;;;8.72;100.00;98908.97;4966940;28;20031;-68
2024/01/05 01:46:16;;;;;;;0.70;0.70;;;;;;;8.73;99.50;98915.16;4948780;28;20613;-69
2024/01/05 01:48:44;;;;;;;0.70;0.70;;;;;;;8.73;99.90;98900.09;4967184;28;20030;-68
2024/01/05 01:51:11;;;;;;;0.70;0.70;;;;;;;8.55;99.49;98873.53;4962638;28;20141;-67
2024/01/05 01:53:37;;;;;;;0.80;0.80;;;;;;;8.68;100.00;98911.84;4968926;28;20034;-68
2024/01/05 01:56:03;;;;;;;0.73;0.73;;;;;;;8.64;99.91;98918.19;4957672;28;20055;-68
2024/01/05 01:58:29;;;;;;;0.80;0.80;;;;;;;8.59;99.86;98918.38;4946589;28;20546;-69
2024/01/05 02:00:54;;;;;;;0.77;0.77;;;;;;;8.57;99.78;98911.41;4951539;29;20030;-69
2024/01/05 02:03:20;;;;;;;0.60;0.60;;;;;;;8.53;100.00;98896.56;4948039;29;20043;-69
2024/01/05 02:05:46;;;;;;;0.80;0.80;;;;;;;8.61;99.71;98910.38;4942973;29;20582;-69
2024/01/05 02:08:12;;;;;;;0.68;0.68;;;;;;;8.60;99.31;98904.19;4931210;29;20039;-68
2024/01/05 02:10:38;;;;;;;0.70;0.70;;;;;;;8.65;99.23;98907.50;4933022;29;20035;-68
2024/01/05 02:13:04;;;;;;;0.70;0.70;;;;;;;8.63;99.16;98892.63;4930146;29;20384;-68
2024/01/05 02:15:29;;;;;;;0.70;0.70;;;;;;;8.68;98.87;98906.53;4944310;28;20082;-69
2024/01/05 02:17:54;;;;;;;0.77;0.77;;;;;;;8.71;99.19;98906.41;4947760;28;20090;-70
2024/01/05 02:20:20;;;;;;;0.80;0.80;;;;;;;8.70;98.32;98892.28;4949833;29;20770;-68
2024/01/05 02:22:53;;;;;;;0.80;0.80;;;;;;;8.73;98.46;98891.28;4941006;28;20486;-69
2024/01/05 02:25:18;;;;;;;0.80;0.80;;;;;;;8.74;98.51;98890.34;4942733;29;20028;-69
2024/01/05 02:27:43;;;;;;;0.68;0.68;;;;;;;8.74;98.45;98890.34;4955770;28;20068;-70
2024/01/05 02:30:09;;;;;;;0.80;0.80;;;;;;;8.76;98.49;98891.16;4969738;28;20057;-69
2024/01/05 02:32:35;;;;;;;0.70;0.70;;;;;;;8.78;97.96;98884.00;4962604;28;20530;-69
2024/01/05 02:35:00;;;;;;;0.80;0.80;;;;;;;8.81;98.28;98883.88;4955030;28;20031;-72
2024/01/05 02:37:26;;;;;;;0.70;0.70;;;;;;;8.80;97.93;98871.53;4970592;28;20045;-72
2024/01/05 02:39:51;;;;;;;0.77;0.77;;;;;;;8.84;97.43;98870.47;4971415;28;20698;-70
2024/01/05 02:42:16;;;;;;;0.70;0.70;;;;;;;8.83;97.67;98868.75;4957996;28;20049;-70
2024/01/05 02:44:42;;;;;;;0.80;0.80;;;;;;;8.82;98.21;98867.03;4949972;29;20070;-64
2024/01/05 02:47:07;;;;;;;0.70;0.70;;;;;;;8.79;97.91;98862.72;4949212;29;20058;-65
2024/01/05 02:49:32;;;;;;;0.75;0.75;;;;;;;8.87;97.59;98862.38;4916191;29;20032;-65
2024/01/05 02:51:58;;;;;;;0.80;0.80;;;;;;;8.83;97.45;98866.94;4930875;29;20544;-65
2024/01/05 02:54:23;;;;;;;0.80;0.80;;;;;;;8.55;97.37;98821.38;4936094;28;20023;-64
2024/01/05 02:56:49;;;;;;;0.80;0.80;;;;;;;8.81;97.13;98852.06;4960412;28;20066;-64
2024/01/05 02:59:15;;;;;;;0.80;0.80;;;;;;;8.88;97.41;98856.16;4968784;28;20689;-65
2024/01/05 03:01:40;;;;;;;0.70;0.70;;;;;;;8.87;97.01;98843.81;4966820;28;20023;-64
2024/01/05 03:04:06;;;;;;;0.80;0.80;;;;;;;8.88;96.76;98849.03;4968292;28;20394;-64
2024/01/05 03:06:31;;;;;;;0.80;0.80;;;;;;;8.91;96.67;98840.94;4970444;28;20045;-64
2024/01/05 03:08:57;;;;;;;0.70;0.70;;;;;;;8.89;96.77;98836.66;4971679;28;20470;-65
2024/01/05 03:11:22;;;;;;;0.70;0.70;;;;;;;8.93;96.38;98825.84;4951575;28;20037;-65
2024/01/05 03:13:47;;;;;;;0.75;0.75;;;;;;;8.88;96.20;98824.34;4966436;28;20030;-64
2024/01/05 03:16:13;;;;;;;0.70;0.70;;;;;;;8.91;95.93;98829.50;4952727;28;20027;-64
2024/01/05 03:18:38;;;;;;;0.70;0.70;;;;;;;8.95;95.61;98825.78;4951163;28;20079;-65
2024/01/05 03:21:04;;;;;;;0.70;0.70;;;;;;;8.76;95.18;98790.41;4950208;29;20034;-64
2024/01/05 03:23:29;;;;;;;0.70;0.70;;;;;;;8.92;94.54;98825.91;4949638;29;20062;-65
2024/01/05 03:25:56;;;;;;;0.80;0.80;;;;;;;8.90;95.02;98823.34;4961715;28;20030;-65
2024/01/05 03:28:22;;;;;;;0.70;0.70;;;;;;;8.91;94.76;98824.19;4949842;28;20041;-64
2024/01/05 03:30:47;;;;;;;0.80;0.80;;;;;;;8.85;95.40;98813.84;4969346;28;20027;-64
2024/01/05 03:33:13;;;;;;;0.75;0.75;;;;;;;8.77;95.06;98803.59;4966513;28;20031;-64
2024/01/05 03:35:38;;;;;;;0.80;0.80;;;;;;;8.85;94.95;98813.84;4955015;28;20038;-64
2024/01/05 03:38:04;;;;;;;0.80;0.80;;;;;;;8.79;95.27;98811.47;4952170;28;20030;-64
2024/01/05 03:40:29;;;;;;;0.80;0.80;;;;;;;8.74;95.69;98813.47;4969714;28;20027;-64
2024/01/05 03:42:56;;;;;;;0.90;0.90;;;;;;;8.69;96.00;98804.88;4968855;28;20046;-64
2024/01/05 03:45:21;;;;;;;0.73;0.73;;;;;;;8.67;96.47;98789.03;4963735;28;20110;-65
2024/01/05 03:47:47;;;;;;;0.80;0.80;;;;;;;8.68;96.91;98805.81;4950299;28;20048;-64
2024/01/05 03:50:12;;;;;;;0.70;0.70;;;;;;;8.68;96.81;98797.84;4966848;28;20038;-64
2024/01/05 03:52:38;;;;;;;0.70;0.70;;;;;;;8.64;97.58;98796.25;4967311;28;20062;-64
2024/01/05 03:55:04;;;;;;;0.75;0.75;;;;;;;8.60;97.48;98797.34;4960412;28;20031;-64
2024/01/05 03:57:30;;;;;;;0.70;0.70;;;;;;;8.57;97.51;98797.44;4930063;29;20146;-64
2024/01/05 03:59:55;;;;;;;0.80;0.80;;;;;;;8.59;97.08;98803.53;4952039;28;20039;-64
2024/01/05 04:02:20;;;;;;;0.80;0.80;;;;;;;8.20;97.35;98728.44;4950121;29;20042;-64
2024/01/05 04:04:46;;;;;;;0.80;0.80;;;;;;;8.55;97.42;98788.72;4939808;29;20050;-64
2024/01/05 04:07:11;;;;;;;0.60;0.60;;;;;;;8.56;97.88;98791.31;4930722;29;20031;-64
2024/01/05 04:09:37;;;;;;;0.80;0.80;;;;;;;8.20;97.42;98739.03;4937625;28;20032;-65
2024/01/05 04:12:03;;;;;;;0.80;0.80;;;;;;;8.48;97.87;98787.25;4952253;28;20114;-64
2024/01/05 04:14:29;;;;;;;0.70;0.70;;;;;;;8.48;97.88;98790.78;4949994;29;20023;-64
2024/01/05 04:16:54;;;;;;;0.70;0.70;;;;;;;8.47;97.73;98799.63;4937271;29;20051;-64
2024/01/05 04:19:20;;;;;;;0.70;0.70;;;;;;;8.47;97.52;98789.03;4934023;28;20027;-64
2024/01/05 04:21:45;;;;;;;0.70;0.70;;;;;;;8.51;97.78;98803.03;4961125;28;20118;-64
2024/01/05 04:24:11;;;;;;;0.70;0.70;;;;;;;8.50;97.46;98798.66;4930467;29;20518;-64
2024/01/05 04:26:36;;;;;;;0.80;0.80;;;;;;;8.38;96.70;98778.84;4930686;29;20116;-65
2024/01/05 04:29:02;;;;;;;0.80;0.80;;;;;;;8.57;96.11;98800.09;4930817;29;20055;-65
2024/01/05 04:31:27;;;;;;;0.63;0.63;;;;;;;8.60;96.20;98800.81;4948676;28;20452;-64
2024/01/05 04:33:54;;;;;;;0.68;0.68;;;;;;;8.63;95.83;98797.19;4959555;28;20391;-65
2024/01/05 04:36:19;;;;;;;0.70;0.70;;;;;;;8.65;95.28;98800.66;4968379;28;20503;-64
2024/01/05 04:38:45;;;;;;;0.70;0.70;;;;;;;8.68;95.00;98785.44;4941561;28;20047;-64
2024/01/05 04:41:12;;;;;;;0.90;0.90;;;;;;;8.74;94.71;98794.91;4928520;29;20035;-64
2024/01/05 04:43:37;;;;;;;0.80;0.80;;;;;;;8.77;94.70;98786.81;4937648;29;20031;-64
2024/01/05 04:46:05;;;;;;;0.60;0.60;;;;;;;8.80;94.48;98791.97;4947363;29;20505;-65
2024/01/05 04:48:30;;;;;;;0.80;0.80;;;;;;;8.81;93.85;98785.78;4946131;29;20057;-65
2024/01/05 04:50:56;;;;;;;0.65;0.65;;;;;;;8.79;94.08;98784.97;4948095;29;20067;-64
2024/01/05 04:53:21;;;;;;;0.80;0.80;;;;;;;8.81;93.24;98778.66;4947363;29;20027;-65
2024/01/05 04:55:47;;;;;;;0.70;0.70;;;;;;;8.82;93.88;98777.75;4948762;28;20051;-64
2024/01/05 04:58:12;;;;;;;0.65;0.65;;;;;;;8.81;94.31;98776.00;4944930;29;20035;-65
2024/01/05 05:00:37;;;;;;;0.85;0.85;;;;;;;8.80;94.16;98784.03;4948945;29;20047;-64
2024/01/05 05:03:03;;;;;;;0.73;0.73;;;;;;;8.74;93.85;98784.31;4948266;28;20035;-64
2024/01/05 05:05:28;;;;;;;0.70;0.70;;;;;;;8.67;94.91;98769.59;4949200;29;20030;-69
2024/01/05 05:07:54;;;;;;;0.80;0.80;;;;;;;8.69;94.65;98781.88;4944719;28;20031;-69
2024/01/05 05:10:22;;;;;;;0.90;0.90;;;;;;;8.60;94.97;98760.22;4948075;28;20062;-69
2024/01/05 05:12:47;;;;;;;0.80;0.80;;;;;;;8.69;95.39;98781.00;4944283;29;20028;-68
2024/01/05 05:15:13;;;;;;;0.80;0.80;;;;;;;8.69;95.42;98781.00;4948272;29;20451;-69
2024/01/05 05:17:38;;;;;;;0.60;0.60;;;;;;;8.67;95.77;98778.44;4948576;29;20158;-69
2024/01/05 05:20:04;;;;;;;0.80;0.80;;;;;;;8.67;95.67;98783.72;4930768;29;20038;-69
2024/01/05 05:22:29;;;;;;;0.80;0.80;;;;;;;8.71;95.17;98787.09;4943559;29;20034;-69
2024/01/05 05:24:55;;;;;;;0.73;0.73;;;;;;;8.68;95.37;98780.13;4944885;29;20039;-70
2024/01/05 05:27:20;;;;;;;0.80;0.80;;;;;;;8.73;95.84;98782.59;4930355;29;20854;-70
2024/01/05 05:29:47;;;;;;;0.70;0.70;;;;;;;8.71;95.75;98773.84;4946274;29;20031;-69
2024/01/05 05:32:13;;;;;;;0.80;0.80;;;;;;;8.65;96.02;98779.44;4947655;29;20035;-70
2024/01/05 05:34:40;;;;;;;0.77;0.77;;;;;;;8.72;95.39;98791.47;4945187;28;20044;-70
2024/01/05 05:37:07;;;;;;;0.80;0.80;;;;;;;8.68;96.00;98787.25;4946830;29;20039;-69
2024/01/05 05:39:33;;;;;;;0.70;0.70;;;;;;;8.69;95.70;98786.31;4944589;29;20030;-70
2024/01/05 05:41:58;;;;;;;0.80;0.80;;;;;;;8.72;95.55;98788.81;4944948;29;20028;-69
2024/01/05 05:44:24;;;;;;;0.80;0.80;;;;;;;8.73;95.52;98796.69;4927418;29;20031;-68
2024/01/05 05:46:49;;;;;;;0.77;0.77;;;;;;;8.78;95.11;98792.06;4927737;29;20036;-68
2024/01/05 05:49:14;;;;;;;0.70;0.70;;;;;;;8.88;94.96;98797.81;4924885;29;20042;-69
2024/01/05 05:51:40;;;;;;;0.80;0.80;;;;;;;8.94;94.21;98786.94;4947589;29;20062;-70
2024/01/05 05:54:05;;;;;;;0.90;0.90;;;;;;;8.98;94.37;98791.16;4944828;29;20027;-69
2024/01/05 05:56:31;;;;;;;0.73;0.73;;;;;;;9.01;94.47;98799.00;4943481;29;20070;-69
2024/01/05 05:58:56;;;;;;;0.80;0.80;;;;;;;9.02;93.95;98790.97;4948355;29;20114;-69
2024/01/05 06:01:23;;;;;;;0.85;0.85;;;;;;;9.00;93.62;98794.59;4950200;28;20082;-69
2024/01/05 06:03:49;;;;;;;0.68;0.68;;;;;;;9.05;93.82;98792.59;4948501;29;20102;-69
2024/01/05 06:06:22;;;;;;;0.70;0.70;;;;;;;8.84;93.64;98759.13;4959386;28;20022;-69
2024/01/05 06:08:48;;;;;;;0.90;0.90;;;;;;;9.01;93.74;98799.00;4975678;28;20034;-69
2024/01/05 06:11:18;;;;;;;0.70;0.70;;;;;;;9.07;93.61;98804.00;4972951;28;20051;-70
2024/01/05 06:13:44;;;;;;;0.75;0.75;;;;;;;9.01;93.21;98791.88;4952963;28;20478;-69
2024/01/05 06:16:10;;;;;;;0.70;0.70;;;;;;;9.08;92.97;98792.44;4962588;28;20118;-68
2024/01/05 06:18:35;;;;;;;0.82;0.82;;;;;;;9.07;93.17;98782.78;4953956;28;20133;-69
2024/01/05 06:21:01;;;;;;;0.80;0.80;;;;;;;9.13;92.48;98787.78;4967204;28;20520;-69
2024/01/05 06:23:26;;;;;;;0.80;0.80;;;;;;;9.12;93.30;98791.41;4963970;28;20047;-69
2024/01/05 06:25:52;;;;;;;0.70;0.70;;;;;;;9.14;93.15;98805.44;4955363;28;20038;-68
2024/01/05 06:28:17;;;;;;;0.70;0.70;;;;;;;8.83;93.03;98757.41;4958351;28;20770;-69
2024/01/05 06:30:43;;;;;;;0.73;0.73;;;;;;;9.16;92.87;98812.41;4947446;28;20039;-69
2024/01/05 06:33:09;;;;;;;0.80;0.80;;;;;;;9.17;93.00;98821.22;4946562;28;20035;-69
2024/01/05 06:35:34;;;;;;;0.70;0.70;;;;;;;8.79;93.30;98754.03;4967474;28;20030;-69
2024/01/05 06:37:59;;;;;;;0.80;0.80;;;;;;;9.18;93.94;98822.94;4985118;28;20081;-68
2024/01/05 06:40:25;;;;;;;0.80;0.80;;;;;;;9.21;92.95;98828.09;4970803;28;20130;-69
2024/01/05 06:42:50;;;;;;;0.70;0.70;;;;;;;9.21;93.39;98828.97;4983119;28;20041;-68
2024/01/05 06:45:16;;;;;;;0.80;0.80;;;;;;;9.10;93.64;98819.78;4981091;28;20044;-69
2024/01/05 06:47:41;;;;;;;0.80;0.80;;;;;;;8.87;93.50;98788.13;4953210;28;20027;-69
2024/01/05 06:50:07;;;;;;;0.80;0.80;;;;;;;9.09;94.41;98828.69;4970680;28;20034;-68
2024/01/05 06:52:33;;;;;;;0.77;0.77;;;;;;;9.04;95.20;98826.22;4970560;28;20030;-69
2024/01/05 06:54:59;;;;;;;0.80;0.80;;;;;;;9.02;95.78;98820.13;4966194;28;20058;-69
2024/01/05 06:57:25;;;;;;;0.80;0.80;;;;;;;9.00;96.25;98827.28;4970079;28;20113;-70
2024/01/05 06:59:51;;;;;;;0.80;0.80;;;;;;;8.98;97.05;98836.22;4971003;28;20030;-69
2024/01/05 07:02:17;;;;;;;0.82;0.82;;;;;;;8.94;97.79;98835.53;4970520;28;20035;-69
2024/01/05 07:04:42;;;;;;;0.80;0.80;;;;;;;8.89;98.97;98832.22;4948867;28;20082;-69
2024/01/05 07:07:08;;;;;;;0.70;0.70;;;;;;;8.85;99.99;98841.22;4969221;28;20026;-69
2024/01/05 07:09:33;;;;;;;0.70;0.70;;;;;;;8.81;100.00;98823.72;4970941;28;20030;-69
2024/01/05 07:11:59;;;;;;;0.70;0.70;;;;;;;8.84;100.00;98843.97;4967562;28;20469;-69
2024/01/05 07:14:27;;;;;;;0.80;0.80;;;;;;;8.62;100.00;98795.44;4957127;28;20093;-70
2024/01/05 07:16:56;;;;;;;0.60;0.60;;;;;;;8.88;100.00;98842.91;4970337;28;20030;-69
2024/01/05 07:19:21;;;;;;;0.73;0.73;;;;;;;8.84;100.00;98828.06;4967888;28;20035;-69
2024/01/05 07:21:47;;;;;;;0.80;0.80;;;;;;;8.85;100.00;98835.06;4970455;28;20406;-69
2024/01/05 07:24:16;;;;;;;0.80;0.80;;;;;;;8.51;99.64;98768.56;4969968;28;20038;-64
2024/01/05 07:26:45;;;;;;;0.80;0.80;;;;;;;8.84;98.77;98813.00;4966298;28;20027;-64
2024/01/05 07:29:10;;;;;;;0.80;0.80;;;;;;;8.94;98.04;98797.53;4968476;28;20038;-64
2024/01/05 07:31:36;;;;;;;0.80;0.80;;;;;;;8.97;97.80;98792.97;4968430;28;20391;-65
2024/01/05 07:34:02;;;;;;;0.88;0.88;;;;;;;8.99;98.08;98791.09;4946614;28;20150;-64
2024/01/05 07:36:28;;;;;;;0.80;0.80;;;;;;;8.96;98.18;98790.38;4962271;28;20034;-65
2024/01/05 07:38:58;;;;;;;0.70;0.70;;;;;;;8.98;97.94;98786.72;4968535;28;20023;-64
2024/01/05 07:41:27;;;;;;;0.80;0.80;;;;;;;8.96;97.88;98785.09;4952962;28;20034;-64
2024/01/05 07:43:52;;;;;;;0.70;0.70;;;;;;;8.98;97.37;98799.09;4966299;28;20585;-64
2024/01/05 07:46:19;;;;;;;0.70;0.70;;;;;;;8.94;97.45;98786.94;4960511;28;20059;-64
2024/01/05 07:48:46;;;;;;;0.80;0.80;;;;;;;9.02;97.44;98800.69;4962688;28;20019;-64
2024/01/05 07:51:12;;;;;;;0.80;0.80;;;;;;;9.03;97.51;98805.06;4967038;28;20562;-64
2024/01/05 07:53:38;;;;;;;0.80;0.80;;;;;;;9.07;97.12;98802.22;4965524;28;20062;-64
2024/01/05 07:56:04;;;;;;;0.80;0.80;;;;;;;9.13;98.03;98798.41;4956333;28;20039;-65
2024/01/05 07:58:30;;;;;;;0.80;0.80;;;;;;;9.11;97.85;98792.31;4954376;28;20042;-64
2024/01/05 08:00:55;;;;;;;0.80;0.80;;;;;;;9.16;97.88;98799.13;4946404;28;20111;-64
2024/01/05 08:03:21;;;;;;;0.82;0.82;;;;;;;9.19;98.09;98798.16;4944273;29;20066;-64
2024/01/05 08:05:47;;;;;;;0.70;0.70;;;;;;;9.22;97.50;98803.31;4942429;28;20039;-64
2024/01/05 08:08:13;;;;;;;0.80;0.80;;;;;;;9.27;97.62;98806.59;4949695;29;20033;-64
2024/01/05 08:10:38;;;;;;;0.73;0.73;;;;;;;9.34;97.55;98810.66;4950401;28;20039;-65
2024/01/05 08:13:04;;;;;;;0.70;0.70;;;;;;;9.44;97.45;98804.00;4921114;29;20039;-64
2024/01/05 08:15:29;;;;;;;0.80;0.80;;;;;;;9.43;96.67;98804.06;4930837;29;20483;-64
2024/01/05 08:17:56;;;;;;;0.90;0.90;;;;;;;9.51;96.49;98794.81;4931363;29;20040;-64
2024/01/05 08:20:21;;;;;;;0.80;0.80;;;;;;;9.47;97.04;98790.63;4937703;29;20031;-64
2024/01/05 08:22:47;;;;;;;0.70;0.70;;;;;;;9.55;96.20;98800.84;4959186;28;20105;-66
2024/01/05 08:25:14;;;;;;;0.70;0.70;;;;;;;9.58;95.66;98798.91;4935589;29;20720;-64
2024/01/05 08:27:39;;;;;;;0.73;0.73;;;;;;;9.57;96.06;98801.66;4931704;29;20043;-64
2024/01/05 08:30:07;;;;;;;0.60;0.60;;;;;;;9.57;95.84;98804.31;4937727;29;20035;-64
2024/01/05 08:32:36;;;;;;;0.75;0.75;;;;;;;9.57;95.83;98810.44;4947238;29;20035;-65
2024/01/05 08:35:01;;;;;;;0.80;0.80;;;;;;;9.19;95.72;98740.63;4942759;28;20105;-68
2024/01/05 08:37:26;;;;;;;0.80;0.80;;;;;;;9.51;95.32;98804.56;4950625;28;20066;-69
2024/01/05 08:39:52;;;;;;;0.80;0.80;;;;;;;9.30;95.33;98770.19;4930329;28;20041;-68
2024/01/05 08:42:17;;;;;;;0.80;0.80;;;;;;;9.51;95.22;98810.75;4944470;28;20050;-68
2024/01/05 08:44:43;;;;;;;0.60;0.60;;;;;;;9.48;95.10;98813.56;4940390;29;20031;-68
2024/01/05 08:47:09;;;;;;;0.80;0.80;;;;;;;9.54;94.52;98804.44;4930029;29;20424;-68
2024/01/05 08:49:34;;;;;;;0.70;0.70;;;;;;;9.56;94.59;98813.19;4926553;28;20027;-68
2024/01/05 08:52:00;;;;;;;0.80;0.80;;;;;;;9.51;95.04;98794.81;4947035;29;20023;-68
2024/01/05 08:54:26;;;;;;;0.80;0.80;;;;;;;9.62;95.36;98803.13;4947173;29;20038;-69
2024/01/05 08:56:52;;;;;;;0.70;0.70;;;;;;;9.68;95.01;98797.53;4923965;29;20115;-69
2024/01/05 08:59:17;;;;;;;0.80;0.80;;;;;;;9.74;95.03;98805.19;4944518;28;20031;-69
2024/01/05 09:01:43;;;;;;;0.70;0.70;;;;;;;9.85;95.49;98810.84;4948826;28;20463;-69
2024/01/05 09:04:10;;;;;;;0.80;0.80;;;;;;;9.74;95.42;98786.59;4948871;29;20030;-69
2024/01/05 09:06:38;;;;;;;0.70;0.70;;;;;;;10.02;94.47;98802.91;4948556;29;20111;-70
2024/01/05 09:09:03;;;;;;;0.70;0.70;;;;;;;10.11;94.89;98805.16;4930277;29;20046;-69
2024/01/05 09:11:29;;;;;;;0.80;0.80;;;;;;;9.98;93.82;98780.06;4936436;28;20036;-69
2024/01/05 09:13:54;;;;;;;0.60;0.60;;;;;;;10.23;93.73;98812.50;4946984;28;20754;-70
2024/01/05 09:16:20;;;;;;;0.70;0.70;;;;;;;10.33;92.83;98823.50;4946640;29;20106;-69
2024/01/05 09:18:46;;;;;;;0.75;0.75;;;;;;;10.37;92.63;98836.59;4946397;29;20027;-68
2024/01/05 09:21:12;;;;;;;0.70;0.70;;;;;;;10.37;92.06;98836.59;4929358;29;20102;-69
2024/01/05 09:23:38;;;;;;;0.70;0.70;;;;;;;10.34;91.69;98836.75;4929834;29;20031;-69
2024/01/05 09:26:04;;;;;;;0.70;0.70;;;;;;;10.38;90.72;98843.63;4929750;29;20027;-69
2024/01/05 09:28:30;;;;;;;0.70;0.70;;;;;;;10.41;90.63;98843.47;4932558;29;20454;-69
2024/01/05 09:30:55;;;;;;;0.80;0.80;;;;;;;10.14;90.88;98781.09;4948106;29;20450;-69
2024/01/05 09:33:20;;;;;;;0.75;0.75;;;;;;;10.58;90.77;98846.13;4929327;28;20043;-69
2024/01/05 09:35:46;;;;;;;0.70;0.70;;;;;;;10.66;90.40;98852.88;4913886;29;20079;-69
2024/01/05 09:38:11;;;;;;;0.70;0.70;;;;;;;10.68;90.69;98862.47;4928449;29;20440;-69
2024/01/05 09:40:37;;;;;;;0.70;0.70;;;;;;;10.75;89.96;98857.69;4931899;29;20487;-68
2024/01/05 09:43:04;;;;;;;0.70;0.70;;;;;;;10.70;89.08;98868.56;4936175;29;20034;-68
2024/01/05 09:45:30;;;;;;;0.70;0.70;;;;;;;10.69;89.70;98873.97;4946669;29;20054;-68
2024/01/05 09:48:00;;;;;;;0.80;0.80;;;;;;;10.71;89.72;98880.09;4946310;29;20488;-69
2024/01/05 09:50:25;;;;;;;0.70;0.70;;;;;;;10.77;89.64;98872.66;4936860;29;20654;-69
2024/01/05 09:52:51;;;;;;;0.70;0.70;;;;;;;10.78;89.68;98873.47;4946394;29;20031;-69
2024/01/05 09:55:16;;;;;;;0.60;0.60;;;;;;;10.78;89.97;98868.16;4924087;29;20480;-69
2024/01/05 09:57:43;;;;;;;0.70;0.70;;;;;;;10.78;89.34;98873.47;4947037;29;20058;-69
2024/01/05 10:00:13;;;;;;;0.60;0.60;;;;;;;10.91;89.98;98878.09;4963399;28;20042;-69
2024/01/05 10:02:57;;;;;;;0.70;0.70;;;;;;;10.98;88.91;98875.97;4955167;28;20030;-68
2024/01/05 10:05:22;;;;;;;0.70;0.70;;;;;;;10.84;89.17;98835.94;4947075;28;20035;-68
2024/01/05 10:07:48;;;;;;;0.70;0.70;;;;;;;11.12;88.55;98868.16;4947854;28;20514;-69
2024/01/05 10:10:13;;;;;;;0.70;0.70;;;;;;;11.17;88.34;98866.09;4947298;28;20495;-70
2024/01/05 10:12:42;;;;;;;0.70;0.70;;;;;;;11.15;87.34;98865.31;4964267;28;20039;-69
2024/01/05 10:15:08;;;;;;;0.70;0.70;;;;;;;11.17;87.55;98866.09;4965407;28;20684;-69
2024/01/05 10:17:34;;;;;;;0.65;0.65;;;;;;;11.18;87.63;98862.50;4966055;28;20054;-69
2024/01/05 10:20:11;;;;;;;0.70;0.70;;;;;;;11.17;87.17;98860.78;4967552;28;20510;-69
2024/01/05 10:22:36;;;;;;;0.60;0.60;;;;;;;11.19;87.82;98858.88;4968405;28;20133;-69
2024/01/05 10:25:16;;;;;;;0.70;0.70;;;;;;;11.18;86.77;98859.81;4965695;28;20804;-68
2024/01/05 10:27:43;;;;;;;0.60;0.60;;;;;;;11.16;86.20;98861.69;4968347;28;20042;-70
2024/01/05 10:30:10;;;;;;;0.70;0.70;;;;;;;11.22;85.48;98848.94;4966465;28;20106;-69
2024/01/05 10:32:36;;;;;;;0.63;0.63;;;;;;;11.38;86.40;98852.47;4975084;28;20023;-69
2024/01/05 10:35:03;;;;;;;0.60;0.60;;;;;;;11.39;85.12;98850.69;4972879;28;20041;-70
2024/01/05 10:37:29;;;;;;;0.70;0.70;;;;;;;11.20;85.97;98802.06;4969546;28;20034;-69
2024/01/05 10:39:56;;;;;;;0.70;0.70;;;;;;;11.52;85.91;98839.28;4970820;28;20057;-70
2024/01/05 10:42:26;;;;;;;0.60;0.60;;;;;;;11.51;84.82;98834.03;4972017;28;20022;-70
2024/01/05 10:44:54;;;;;;;0.70;0.70;;;;;;;11.56;85.15;98838.19;4953908;28;20050;-70
2024/01/05 10:47:21;;;;;;;0.60;0.60;;;;;;;11.63;85.17;98838.69;4949735;29;20046;-69
2024/01/05 10:49:51;;;;;;;0.70;0.70;;;;;;;11.65;85.07;98837.69;4957648;28;20138;-70
2024/01/05 10:52:18;;;;;;;0.60;0.60;;;;;;;11.45;85.24;98791.78;4966488;28;20044;-69
2024/01/05 10:54:45;;;;;;;0.60;0.60;;;;;;;11.57;84.72;98839.88;4968008;28;20066;-69
2024/01/05 10:57:13;;;;;;;0.60;0.60;;;;;;;11.56;84.89;98832.00;4932070;29;20107;-69
2024/01/05 10:59:38;;;;;;;0.60;0.60;;;;;;;11.53;84.48;98827.69;4933204;29;20070;-69
2024/01/05 11:02:14;;;;;;;0.70;0.70;;;;;;;11.47;84.89;98830.69;4949564;29;20518;-69
2024/01/05 11:04:44;;;;;;;0.70;0.70;;;;;;;11.56;85.17;98816.00;4949876;29;20034;-69
2024/01/05 11:07:12;;;;;;;0.70;0.70;;;;;;;11.62;85.35;98815.66;4938244;28;20035;-69
2024/01/05 11:10:02;;;;;;;0.70;0.70;;;;;;;11.71;85.04;98825.84;4946467;29;20563;-69
2024/01/05 11:12:57;;;;;;;0.60;0.60;;;;;;;11.71;84.91;98825.84;4948284;29;20150;-69
2024/01/05 11:16:01;;;;;;;0.70;0.70;;;;;;;11.82;86.35;98824.28;4943814;29;20035;-69
2024/01/05 11:18:43;;;;;;;0.70;0.70;;;;;;;11.81;85.91;98825.22;4950855;29;20020;-69
2024/01/05 11:21:22;;;;;;;0.60;0.60;;;;;;;11.68;85.46;98788.69;4964621;28;20270;-68
2024/01/05 11:23:49;;;;;;;0.60;0.60;;;;;;;11.94;86.09;98818.25;4933462;29;20760;-69
2024/01/05 11:26:35;;;;;;;0.70;0.70;;;;;;;12.01;86.07;98813.44;4913718;29;20028;-71
2024/01/05 11:29:04;;;;;;;0.70;0.70;;;;;;;12.00;85.78;98811.72;4933761;29;20074;-70
2024/01/05 11:31:47;;;;;;;0.63;0.63;;;;;;;12.03;85.72;98816.88;4931213;29;20083;-69
2024/01/05 11:34:32;;;;;;;0.60;0.60;;;;;;;12.07;85.11;98821.09;4949422;29;20566;-70
2024/01/05 11:36:58;;;;;;;0.60;0.60;;;;;;;12.05;84.87;98828.31;4948904;29;20821;-69